Time;durP1;ratioP1;P1;durP2;ratioP2;P2;SDS_P1;SDS_P2;PMS_P1;PMS_P2;Temp;Humidity;BMP_temperature;BMP_pressure;BME280_temperature;BME280_humidity;BME280_pressure;Samples;Min_cycle;Max_cycle;Signal;HPM_P1;HPM_P2
2022/11/23 00:01:24;;;;;;;2.05;0.50;;;;;;;;;;5031765;28;20559;-73
2022/11/23 00:03:53;;;;;;;2.25;0.75;;;;;;;;;;5033526;28;20113;-74
2022/11/23 00:06:20;;;;;;;0.85;0.60;;;;;;;;;;5015491;28;20143;-70
2022/11/23 00:08:46;;;;;;;2.17;0.55;;;;;;;;;;5032687;28;20071;-72
2022/11/23 00:11:13;;;;;;;2.80;0.70;;;;;;;;;;5033904;28;20053;-73
2022/11/23 00:13:39;;;;;;;0.70;0.40;;;;;;;;;;5036567;28;20079;-73
2022/11/23 00:16:19;;;;;;;3.03;0.60;;;;;;;;;;5035628;28;20072;-71
2022/11/23 00:18:46;;;;;;;1.58;0.50;;;;;;;;;;5038139;28;20068;-73
2022/11/23 00:21:17;;;;;;;1.63;0.50;;;;;;;;;;5038530;28;20053;-72
2022/11/23 00:23:44;;;;;;;1.52;0.80;;;;;;;;;;5037258;28;20057;-72
2022/11/23 00:26:11;;;;;;;1.33;0.55;;;;;;;;;;5038834;28;20678;-70
2022/11/23 00:28:39;;;;;;;1.58;0.47;;;;;;;;;;5032550;28;21342;-71
2022/11/23 00:31:06;;;;;;;5.50;0.70;;;;;;;;;;5036175;28;20045;-71
2022/11/23 00:33:32;;;;;;;0.80;0.43;;;;;;;;;;5033056;28;20053;-72
2022/11/23 00:36:00;;;;;;;3.17;0.50;;;;;;;;;;5040508;28;20052;-71
2022/11/23 00:38:26;;;;;;;0.88;0.47;;;;;;;;;;5031844;28;20045;-71
2022/11/23 00:41:05;;;;;;;0.75;0.50;;;;;;;;;;5036826;28;20041;-73
2022/11/23 00:43:31;;;;;;;1.00;0.45;;;;;;;;;;5014431;28;20506;-72
2022/11/23 00:46:09;;;;;;;3.25;0.45;;;;;;;;;;5034741;28;20057;-72
2022/11/23 00:48:36;;;;;;;1.08;0.40;;;;;;;;;;5028947;28;20080;-69
2022/11/23 00:51:03;;;;;;;0.95;0.50;;;;;;;;;;5029667;28;20051;-70
2022/11/23 00:53:29;;;;;;;2.25;0.40;;;;;;;;;;5035124;28;20139;-71
2022/11/23 00:55:56;;;;;;;2.83;0.60;;;;;;;;;;5038714;28;20053;-71
2022/11/23 00:58:22;;;;;;;1.85;0.65;;;;;;;;;;5034203;28;20045;-72
2022/11/23 01:00:49;;;;;;;1.48;0.60;;;;;;;;;;5033277;28;20078;-71
2022/11/23 01:03:15;;;;;;;1.27;0.55;;;;;;;;;;5033708;28;20052;-71
2022/11/23 01:05:42;;;;;;;0.98;0.40;;;;;;;;;;5039100;28;20502;-71
2022/11/23 01:08:08;;;;;;;0.90;0.40;;;;;;;;;;5036729;28;20037;-71
2022/11/23 01:10:34;;;;;;;1.15;0.47;;;;;;;;;;5033820;28;21495;-73
2022/11/23 01:12:59;;;;;;;1.25;0.57;;;;;;;;;;5031443;28;20111;-70
2022/11/23 01:15:26;;;;;;;1.02;0.50;;;;;;;;;;5037939;28;20140;-70
2022/11/23 01:17:52;;;;;;;1.58;0.60;;;;;;;;;;5034756;28;20053;-73
2022/11/23 01:20:18;;;;;;;1.58;0.60;;;;;;;;;;5033079;28;20097;-72
2022/11/23 01:22:43;;;;;;;2.65;0.63;;;;;;;;;;5031407;28;20454;-69
2022/11/23 01:25:09;;;;;;;0.95;0.68;;;;;;;;;;5035595;28;20057;-70
2022/11/23 01:27:35;;;;;;;1.63;0.60;;;;;;;;;;5035961;28;20072;-70
2022/11/23 01:30:01;;;;;;;1.20;0.40;;;;;;;;;;5006272;28;20061;-70
2022/11/23 01:32:27;;;;;;;0.73;0.30;;;;;;;;;;5028215;28;20584;-72
2022/11/23 01:34:53;;;;;;;0.60;0.50;;;;;;;;;;5035767;28;20529;-71
2022/11/23 01:37:19;;;;;;;1.45;0.45;;;;;;;;;;5031828;28;20095;-69
2022/11/23 01:39:47;;;;;;;0.95;0.50;;;;;;;;;;5030332;28;20070;-71
2022/11/23 01:42:13;;;;;;;0.68;0.35;;;;;;;;;;5033191;28;20063;-70
2022/11/23 01:44:41;;;;;;;1.33;0.50;;;;;;;;;;5035519;28;20058;-70
2022/11/23 01:47:08;;;;;;;1.55;0.40;;;;;;;;;;5030737;28;20048;-71
2022/11/23 01:49:55;;;;;;;1.95;0.60;;;;;;;;;;5033955;28;20056;-73
2022/11/23 01:52:25;;;;;;;1.30;0.40;;;;;;;;;;5032744;28;20075;-72
2022/11/23 01:54:56;;;;;;;0.95;0.45;;;;;;;;;;5034772;28;20059;-70
2022/11/23 01:57:31;;;;;;;3.22;0.60;;;;;;;;;;5035842;28;20048;-70
2022/11/23 01:59:57;;;;;;;1.23;0.50;;;;;;;;;;5010381;28;20061;-71
2022/11/23 02:02:25;;;;;;;1.05;0.40;;;;;;;;;;5033662;28;20037;-73
2022/11/23 02:04:52;;;;;;;3.17;0.60;;;;;;;;;;5033247;28;20056;-69
2022/11/23 02:07:21;;;;;;;1.23;0.35;;;;;;;;;;5025381;28;20049;-70
2022/11/23 02:09:47;;;;;;;1.48;0.60;;;;;;;;;;5032209;28;20121;-69
2022/11/23 02:12:13;;;;;;;3.10;0.50;;;;;;;;;;5032577;28;20157;-68
2022/11/23 02:14:41;;;;;;;1.25;0.50;;;;;;;;;;5036177;28;20079;-69
2022/11/23 02:17:07;;;;;;;2.85;0.90;;;;;;;;;;5028274;28;20696;-68
2022/11/23 02:20:02;;;;;;;1.65;0.70;;;;;;;;;;5028772;28;20049;-71
2022/11/23 02:23:02;;;;;;;1.05;0.63;;;;;;;;;;5015956;28;20048;-70
2022/11/23 02:25:44;;;;;;;1.02;0.57;;;;;;;;;;5032920;28;20132;-73
2022/11/23 02:28:42;;;;;;;1.95;0.50;;;;;;;;;;5032770;28;20064;-70
2022/11/23 02:31:09;;;;;;;2.15;0.60;;;;;;;;;;5020212;28;20787;-71
2022/11/23 02:33:38;;;;;;;1.90;0.43;;;;;;;;;;5026869;28;20490;-70
2022/11/23 02:36:24;;;;;;;0.93;0.50;;;;;;;;;;5032082;28;20075;-71
2022/11/23 02:38:49;;;;;;;;;;;;;;;;;;5031954;28;20386;-70
2022/11/23 02:41:15;;;;;;;1.25;0.47;;;;;;;;;;5034543;28;20063;-73
2022/11/23 02:43:42;;;;;;;4.20;0.55;;;;;;;;;;5030921;28;20052;-71
2022/11/23 02:46:08;;;;;;;1.67;0.47;;;;;;;;;;5035794;28;20114;-73
2022/11/23 02:48:34;;;;;;;3.10;0.50;;;;;;;;;;5026020;28;20140;-70
2022/11/23 02:51:00;;;;;;;2.65;0.43;;;;;;;;;;5015058;28;20119;-71
2022/11/23 02:53:26;;;;;;;1.00;0.43;;;;;;;;;;5033999;28;20094;-71
2022/11/23 02:55:52;;;;;;;0.30;0.30;;;;;;;;;;5035895;28;20487;-70
2022/11/23 02:58:18;;;;;;;1.10;0.40;;;;;;;;;;5025801;28;20107;-73
2022/11/23 03:00:44;;;;;;;0.70;0.30;;;;;;;;;;5028023;28;20056;-71
2022/11/23 03:03:10;;;;;;;0.82;0.50;;;;;;;;;;5031926;28;21134;-71
2022/11/23 03:05:36;;;;;;;0.30;0.30;;;;;;;;;;5030379;28;20130;-71
2022/11/23 03:08:02;;;;;;;4.30;0.40;;;;;;;;;;5036793;28;20110;-72
2022/11/23 03:10:28;;;;;;;5.28;0.40;;;;;;;;;;5032706;28;20057;-70
2022/11/23 03:12:55;;;;;;;0.30;0.20;;;;;;;;;;5028845;28;20055;-72
2022/11/23 03:15:23;;;;;;;0.80;0.30;;;;;;;;;;5033377;28;20056;-70
2022/11/23 03:17:49;;;;;;;1.85;0.45;;;;;;;;;;5034740;28;20045;-73
2022/11/23 03:20:15;;;;;;;6.10;0.50;;;;;;;;;;5032400;28;20065;-71
2022/11/23 03:22:41;;;;;;;1.08;0.32;;;;;;;;;;5028411;28;20529;-69
2022/11/23 03:25:07;;;;;;;2.42;0.50;;;;;;;;;;5035016;28;20387;-70
2022/11/23 03:27:33;;;;;;;0.75;0.40;;;;;;;;;;5032572;28;20048;-71
2022/11/23 03:30:00;;;;;;;1.70;0.77;;;;;;;;;;5026429;28;20049;-70
2022/11/23 03:32:25;;;;;;;1.95;0.30;;;;;;;;;;5028459;28;20048;-72
2022/11/23 03:34:51;;;;;;;1.10;0.40;;;;;;;;;;5035345;28;20092;-70
2022/11/23 03:37:17;;;;;;;0.52;0.40;;;;;;;;;;5037538;28;20056;-71
2022/11/23 03:39:43;;;;;;;1.27;0.28;;;;;;;;;;5033026;28;20056;-69
2022/11/23 03:42:09;;;;;;;1.13;0.40;;;;;;;;;;5033165;28;20091;-70
2022/11/23 03:44:35;;;;;;;1.38;0.60;;;;;;;;;;5038092;28;20455;-68
2022/11/23 03:47:00;;;;;;;0.63;0.40;;;;;;;;;;5033059;28;20051;-71
2022/11/23 03:49:26;;;;;;;2.35;0.50;;;;;;;;;;5027122;28;20067;-70
2022/11/23 03:51:52;;;;;;;1.50;0.47;;;;;;;;;;5036859;28;20048;-70
2022/11/23 03:54:18;;;;;;;2.63;0.70;;;;;;;;;;5033295;28;20847;-70
2022/11/23 03:56:44;;;;;;;2.22;0.60;;;;;;;;;;5035134;28;20114;-69
2022/11/23 03:59:10;;;;;;;1.50;0.50;;;;;;;;;;5030564;28;20053;-70
2022/11/23 04:01:36;;;;;;;1.38;0.45;;;;;;;;;;5032497;28;20068;-70
2022/11/23 04:04:02;;;;;;;0.35;0.35;;;;;;;;;;5032128;28;20049;-69
2022/11/23 04:06:28;;;;;;;3.40;0.55;;;;;;;;;;5034019;28;20055;-69
2022/11/23 04:08:54;;;;;;;1.67;0.50;;;;;;;;;;5030765;28;20536;-70
2022/11/23 04:11:20;;;;;;;2.47;0.70;;;;;;;;;;5036492;28;20060;-71
2022/11/23 04:13:46;;;;;;;0.82;0.40;;;;;;;;;;5036808;28;20052;-70
2022/11/23 04:16:12;;;;;;;2.38;0.63;;;;;;;;;;5030670;28;20210;-69
2022/11/23 04:18:39;;;;;;;1.85;0.60;;;;;;;;;;5031409;28;20064;-69
2022/11/23 04:21:05;;;;;;;2.30;0.68;;;;;;;;;;5039415;28;20156;-68
2022/11/23 04:23:31;;;;;;;1.52;0.70;;;;;;;;;;5035176;28;20057;-70
2022/11/23 04:25:57;;;;;;;1.60;0.60;;;;;;;;;;5034276;28;20072;-72
2022/11/23 04:28:23;;;;;;;1.73;0.60;;;;;;;;;;5030139;28;20055;-71
2022/11/23 04:30:49;;;;;;;5.10;0.70;;;;;;;;;;5031233;28;20190;-71
2022/11/23 04:33:15;;;;;;;2.00;0.60;;;;;;;;;;5030847;28;20113;-70
2022/11/23 04:35:41;;;;;;;3.25;0.70;;;;;;;;;;5034329;28;20048;-69
2022/11/23 04:38:07;;;;;;;2.40;0.73;;;;;;;;;;5035121;28;20061;-70
2022/11/23 04:40:33;;;;;;;3.35;0.85;;;;;;;;;;5033106;28;20120;-70
2022/11/23 04:42:59;;;;;;;3.03;0.75;;;;;;;;;;5032614;28;20406;-68
2022/11/23 04:45:25;;;;;;;1.30;0.70;;;;;;;;;;5037242;28;20049;-72
2022/11/23 04:47:51;;;;;;;4.63;1.10;;;;;;;;;;5036012;28;20127;-69
2022/11/23 04:50:17;;;;;;;2.13;0.70;;;;;;;;;;5035211;28;20074;-69
2022/11/23 04:52:43;;;;;;;3.22;0.70;;;;;;;;;;5037954;28;20064;-70
2022/11/23 04:55:08;;;;;;;2.13;0.90;;;;;;;;;;5035425;28;20045;-68
2022/11/23 04:57:34;;;;;;;4.15;0.65;;;;;;;;;;5029285;28;20064;-69
2022/11/23 05:00:03;;;;;;;1.73;0.80;;;;;;;;;;5028567;28;20052;-72
2022/11/23 05:02:29;;;;;;;1.27;0.80;;;;;;;;;;5026451;28;20113;-72
2022/11/23 05:04:55;;;;;;;1.48;0.70;;;;;;;;;;5035457;28;20045;-69
2022/11/23 05:07:21;;;;;;;3.25;0.68;;;;;;;;;;5028286;28;20053;-70
2022/11/23 05:09:47;;;;;;;2.05;0.85;;;;;;;;;;5029393;28;20064;-70
2022/11/23 05:12:13;;;;;;;2.63;0.75;;;;;;;;;;5031947;28;20482;-69
2022/11/23 05:14:39;;;;;;;1.02;0.50;;;;;;;;;;5037654;28;20048;-68
2022/11/23 05:17:05;;;;;;;2.40;0.75;;;;;;;;;;5034974;28;20040;-70
2022/11/23 05:19:30;;;;;;;3.35;1.05;;;;;;;;;;5032892;28;20670;-69
2022/11/23 05:21:56;;;;;;;2.60;0.63;;;;;;;;;;5019039;28;20040;-70
2022/11/23 05:24:22;;;;;;;2.10;1.08;;;;;;;;;;5038091;28;20502;-71
2022/11/23 05:26:48;;;;;;;4.00;0.60;;;;;;;;;;5033248;28;20056;-71
2022/11/23 05:29:14;;;;;;;2.25;0.68;;;;;;;;;;5014295;28;20142;-71
2022/11/23 05:31:40;;;;;;;2.17;0.80;;;;;;;;;;5034432;28;20072;-70
2022/11/23 05:34:06;;;;;;;3.25;0.60;;;;;;;;;;5030480;28;20082;-70
2022/11/23 05:36:32;;;;;;;1.65;0.65;;;;;;;;;;5029379;28;20037;-69
2022/11/23 05:38:58;;;;;;;1.85;0.65;;;;;;;;;;5022319;28;20060;-71
2022/11/23 05:41:24;;;;;;;0.82;0.50;;;;;;;;;;5034027;28;20052;-70
2022/11/23 05:43:49;;;;;;;2.00;0.70;;;;;;;;;;5014892;28;20063;-72
2022/11/23 05:46:15;;;;;;;2.50;0.55;;;;;;;;;;5015149;28;20061;-71
2022/11/23 05:48:41;;;;;;;4.82;0.65;;;;;;;;;;5032839;28;20063;-71
2022/11/23 05:51:07;;;;;;;2.30;0.50;;;;;;;;;;5013716;28;20048;-75
2022/11/23 05:53:33;;;;;;;1.52;0.60;;;;;;;;;;5018412;28;20060;-72
2022/11/23 05:56:00;;;;;;;2.58;0.90;;;;;;;;;;5033584;28;20782;-73
2022/11/23 05:58:26;;;;;;;2.38;0.73;;;;;;;;;;5035711;28;20143;-71
2022/11/23 06:00:57;;;;;;;2.25;0.63;;;;;;;;;;5028264;28;20413;-73
2022/11/23 06:03:24;;;;;;;1.25;0.40;;;;;;;;;;5029344;28;20048;-74
2022/11/23 06:05:50;;;;;;;0.40;0.40;;;;;;;;;;5037987;28;20053;-71
2022/11/23 06:08:15;;;;;;;3.08;0.70;;;;;;;;;;5031767;28;20057;-72
2022/11/23 06:10:42;;;;;;;3.00;1.08;;;;;;;;;;5026307;28;20129;-74
2022/11/23 06:13:07;;;;;;;1.38;0.63;;;;;;;;;;5036442;28;20053;-72
2022/11/23 06:15:33;;;;;;;1.85;0.55;;;;;;;;;;5028784;28;20052;-71
2022/11/23 06:18:00;;;;;;;1.25;0.68;;;;;;;;;;5032896;28;20064;-73
2022/11/23 06:20:28;;;;;;;2.30;0.60;;;;;;;;;;5022352;28;20065;-72
2022/11/23 06:22:54;;;;;;;1.58;0.80;;;;;;;;;;5022782;28;20064;-75
2022/11/23 06:25:21;;;;;;;0.60;0.57;;;;;;;;;;5037327;28;20060;-73
2022/11/23 06:27:54;;;;;;;2.33;0.73;;;;;;;;;;5033598;28;20513;-77
2022/11/23 06:30:20;;;;;;;3.75;0.70;;;;;;;;;;5030040;28;20076;-73
2022/11/23 06:32:45;;;;;;;1.52;0.80;;;;;;;;;;5024820;28;20561;-77
2022/11/23 06:35:12;;;;;;;6.00;0.60;;;;;;;;;;5024954;28;20087;-72
2022/11/23 06:37:38;;;;;;;1.77;0.60;;;;;;;;;;5029197;28;20517;-73
2022/11/23 06:40:04;;;;;;;6.45;0.70;;;;;;;;;;5025578;28;20522;-71
2022/11/23 06:42:30;;;;;;;1.63;0.60;;;;;;;;;;5025920;28;20075;-74
2022/11/23 06:44:56;;;;;;;2.50;0.63;;;;;;;;;;5030556;28;20053;-72
2022/11/23 06:47:22;;;;;;;3.13;0.80;;;;;;;;;;5027155;28;20052;-73
2022/11/23 06:49:48;;;;;;;1.48;0.63;;;;;;;;;;5026264;28;20041;-74
2022/11/23 06:52:14;;;;;;;2.55;0.77;;;;;;;;;;5028734;28;20075;-74
2022/11/23 06:54:40;;;;;;;2.03;0.73;;;;;;;;;;5022021;28;20045;-72
2022/11/23 06:57:09;;;;;;;7.20;0.98;;;;;;;;;;5026643;28;20049;-76
2022/11/23 06:59:35;;;;;;;2.85;0.77;;;;;;;;;;5021189;28;20160;-72
2022/11/23 07:02:00;;;;;;;1.92;0.65;;;;;;;;;;5034190;28;20052;-74
2022/11/23 07:04:26;;;;;;;1.95;0.85;;;;;;;;;;5028774;28;20121;-72
2022/11/23 07:06:52;;;;;;;2.22;0.65;;;;;;;;;;5028712;28;20768;-72
2022/11/23 07:09:18;;;;;;;6.10;1.08;;;;;;;;;;5032214;28;20424;-73
2022/11/23 07:11:44;;;;;;;3.90;0.70;;;;;;;;;;5036741;28;20498;-70
2022/11/23 07:14:11;;;;;;;6.18;0.90;;;;;;;;;;5032500;28;20049;-72
2022/11/23 07:16:37;;;;;;;3.15;0.88;;;;;;;;;;5029749;28;20124;-74
2022/11/23 07:19:03;;;;;;;2.90;0.75;;;;;;;;;;5029133;28;20064;-68
2022/11/23 07:21:29;;;;;;;1.45;0.75;;;;;;;;;;5036958;28;20110;-70
2022/11/23 07:23:55;;;;;;;2.55;0.80;;;;;;;;;;5036718;28;20450;-70
2022/11/23 07:26:21;;;;;;;4.20;0.90;;;;;;;;;;5015831;28;20048;-70
2022/11/23 07:28:47;;;;;;;3.78;0.85;;;;;;;;;;5029805;28;20612;-71
2022/11/23 07:31:14;;;;;;;2.58;0.80;;;;;;;;;;5035707;28;20110;-71
2022/11/23 07:33:45;;;;;;;0.98;0.57;;;;;;;;;;5038464;28;21049;-71
2022/11/23 07:36:11;;;;;;;2.78;0.80;;;;;;;;;;5036637;28;20072;-73
2022/11/23 07:38:38;;;;;;;4.97;0.95;;;;;;;;;;5033062;28;20565;-73
2022/11/23 07:41:03;;;;;;;5.32;1.00;;;;;;;;;;5039301;28;20048;-73
2022/11/23 07:43:29;;;;;;;1.63;0.70;;;;;;;;;;5039120;28;20048;-74
2022/11/23 07:45:56;;;;;;;2.58;0.70;;;;;;;;;;5032101;28;20135;-72
2022/11/23 07:48:23;;;;;;;2.45;0.70;;;;;;;;;;5033102;28;20125;-71
2022/11/23 07:50:52;;;;;;;1.00;0.60;;;;;;;;;;5033889;28;20151;-72
2022/11/23 07:53:18;;;;;;;4.72;1.10;;;;;;;;;;5038192;28;20044;-70
2022/11/23 07:55:44;;;;;;;8.05;0.90;;;;;;;;;;5038123;28;21240;-70
2022/11/23 07:58:11;;;;;;;2.45;0.60;;;;;;;;;;5036536;28;20053;-72
2022/11/23 08:00:37;;;;;;;3.22;0.82;;;;;;;;;;5025617;28;20153;-74
2022/11/23 08:03:03;;;;;;;1.48;0.57;;;;;;;;;;5032948;28;21402;-71
2022/11/23 08:05:34;;;;;;;3.50;0.80;;;;;;;;;;5034920;28;20298;-71
2022/11/23 08:08:02;;;;;;;3.22;0.70;;;;;;;;;;5037118;28;20044;-75
2022/11/23 08:10:29;;;;;;;18.05;1.08;;;;;;;;;;5031824;28;20048;-72
2022/11/23 08:12:57;;;;;;;0.95;0.43;;;;;;;;;;5036167;28;20155;-70
2022/11/23 08:15:23;;;;;;;3.40;0.77;;;;;;;;;;5035346;28;20049;-73
2022/11/23 08:17:54;;;;;;;2.30;0.73;;;;;;;;;;5037552;28;20053;-72
2022/11/23 08:20:20;;;;;;;2.17;0.80;;;;;;;;;;5028769;28;20053;-71
2022/11/23 08:22:46;;;;;;;7.60;0.90;;;;;;;;;;5029665;28;20044;-73
2022/11/23 08:25:12;;;;;;;2.20;0.75;;;;;;;;;;5044428;28;20074;-72
2022/11/23 08:27:38;;;;;;;5.47;0.82;;;;;;;;;;5039756;28;20045;-73
2022/11/23 08:30:05;;;;;;;0.88;0.52;;;;;;;;;;5033258;28;20738;-73
2022/11/23 08:32:31;;;;;;;1.38;0.80;;;;;;;;;;5036888;28;20127;-71
2022/11/23 08:34:56;;;;;;;1.65;0.65;;;;;;;;;;5039206;28;20135;-69
2022/11/23 08:37:23;;;;;;;4.10;0.82;;;;;;;;;;5037342;28;20543;-72
2022/11/23 08:39:48;;;;;;;1.38;0.70;;;;;;;;;;5031557;28;20052;-70
2022/11/23 08:42:14;;;;;;;2.08;0.80;;;;;;;;;;5032760;28;20052;-71
2022/11/23 08:44:40;;;;;;;1.92;0.82;;;;;;;;;;5037107;28;20082;-72
2022/11/23 08:47:06;;;;;;;2.75;0.90;;;;;;;;;;5032146;28;20119;-70
2022/11/23 08:49:32;;;;;;;1.98;0.70;;;;;;;;;;5024967;28;20055;-72
2022/11/23 08:51:59;;;;;;;1.52;0.80;;;;;;;;;;5040433;28;20149;-71
2022/11/23 08:54:25;;;;;;;2.75;0.90;;;;;;;;;;5037063;28;20079;-68
2022/11/23 08:56:51;;;;;;;5.93;0.85;;;;;;;;;;5030370;28;20060;-72
2022/11/23 08:59:17;;;;;;;1.23;0.55;;;;;;;;;;5031400;28;20110;-69
2022/11/23 09:01:44;;;;;;;3.00;0.90;;;;;;;;;;5030960;28;20503;-73
2022/11/23 09:04:10;;;;;;;2.90;0.85;;;;;;;;;;5037842;28;20085;-71
2022/11/23 09:06:36;;;;;;;3.25;1.00;;;;;;;;;;5034170;28;21096;-71
2022/11/23 09:09:02;;;;;;;0.80;0.70;;;;;;;;;;5030702;28;20056;-70
2022/11/23 09:11:28;;;;;;;5.05;0.70;;;;;;;;;;5035188;28;20036;-71
2022/11/23 09:13:54;;;;;;;2.40;0.68;;;;;;;;;;5036900;28;20124;-72
2022/11/23 09:16:21;;;;;;;3.67;0.80;;;;;;;;;;5034254;28;20053;-71
2022/11/23 09:18:48;;;;;;;2.25;0.80;;;;;;;;;;5025294;28;20057;-71
2022/11/23 09:21:14;;;;;;;0.88;0.60;;;;;;;;;;5039182;28;20072;-72
2022/11/23 09:23:40;;;;;;;3.50;0.80;;;;;;;;;;5015088;28;20056;-69
2022/11/23 09:26:06;;;;;;;2.50;0.98;;;;;;;;;;5036584;28;20448;-70
2022/11/23 09:28:32;;;;;;;8.63;0.70;;;;;;;;;;5029618;28;20473;-71
2022/11/23 09:31:02;;;;;;;4.05;0.80;;;;;;;;;;5034336;28;20660;-70
2022/11/23 09:33:28;;;;;;;2.80;0.70;;;;;;;;;;5034728;28;20053;-71
2022/11/23 09:35:58;;;;;;;1.80;0.50;;;;;;;;;;5036456;28;20134;-70
2022/11/23 09:38:25;;;;;;;3.55;1.13;;;;;;;;;;5033717;28;20233;-71
2022/11/23 09:41:05;;;;;;;3.58;0.70;;;;;;;;;;5029844;28;20049;-70
2022/11/23 09:43:50;;;;;;;3.75;0.77;;;;;;;;;;5035000;28;20049;-72
2022/11/23 09:46:28;;;;;;;3.05;0.70;;;;;;;;;;5036603;28;20055;-71
2022/11/23 09:49:16;;;;;;;5.88;0.82;;;;;;;;;;5026988;28;21444;-72
2022/11/23 09:51:43;;;;;;;5.93;0.90;;;;;;;;;;5030272;28;20057;-71
2022/11/23 09:54:14;;;;;;;1.17;0.68;;;;;;;;;;5033046;28;20055;-70
2022/11/23 09:56:41;;;;;;;1.33;0.60;;;;;;;;;;5035731;28;20087;-69
2022/11/23 09:59:30;;;;;;;2.88;0.77;;;;;;;;;;5027523;28;20057;-70
2022/11/23 10:01:57;;;;;;;4.35;0.70;;;;;;;;;;5035936;28;20049;-71
2022/11/23 10:04:24;;;;;;;6.07;0.93;;;;;;;;;;5039125;28;20052;-70
2022/11/23 10:07:07;;;;;;;2.33;0.88;;;;;;;;;;5038184;28;20060;-69
2022/11/23 10:09:55;;;;;;;2.15;0.70;;;;;;;;;;5028949;28;20048;-73
2022/11/23 10:12:36;;;;;;;2.17;0.90;;;;;;;;;;5034124;28;20118;-71
2022/11/23 10:15:20;;;;;;;1.13;0.65;;;;;;;;;;5034754;28;20055;-72
2022/11/23 10:18:05;;;;;;;1.60;0.50;;;;;;;;;;5030385;28;20053;-70
2022/11/23 10:21:09;;;;;;;1.95;0.60;;;;;;;;;;5032631;28;20061;-72
2022/11/23 10:23:55;;;;;;;1.55;0.60;;;;;;;;;;5035717;28;20052;-71
2022/11/23 10:26:31;;;;;;;4.28;0.80;;;;;;;;;;5035277;28;20083;-69
2022/11/23 10:29:08;;;;;;;2.47;1.13;;;;;;;;;;5029818;28;20448;-71
2022/11/23 10:31:35;;;;;;;1.80;0.70;;;;;;;;;;5035277;28;20053;-70
2022/11/23 10:34:43;;;;;;;3.45;0.88;;;;;;;;;;5039022;28;20481;-70
2022/11/23 10:37:11;;;;;;;0.93;0.63;;;;;;;;;;5032017;28;20300;-71
2022/11/23 10:39:37;;;;;;;2.40;0.77;;;;;;;;;;5024703;28;20048;-72
2022/11/23 10:42:35;;;;;;;1.77;0.90;;;;;;;;;;5029013;28;20541;-71
2022/11/23 10:45:01;;;;;;;1.10;0.60;;;;;;;;;;5010155;28;20060;-72
2022/11/23 10:47:59;;;;;;;5.00;0.77;;;;;;;;;;5032879;28;20060;-70
2022/11/23 10:50:29;;;;;;;2.22;0.68;;;;;;;;;;5027602;28;20156;-70
2022/11/23 10:53:04;;;;;;;1.48;0.75;;;;;;;;;;5020280;28;20048;-71
2022/11/23 10:55:46;;;;;;;4.38;0.68;;;;;;;;;;5023337;28;20048;-70
2022/11/23 10:58:33;;;;;;;3.05;0.60;;;;;;;;;;5011415;28;20538;-71
2022/11/23 11:01:01;;;;;;;2.28;0.73;;;;;;;;;;5027099;28;20114;-72
2022/11/23 11:03:33;;;;;;;1.58;0.65;;;;;;;;;;5033353;28;20510;-71
2022/11/23 11:06:00;;;;;;;1.73;0.55;;;;;;;;;;5035833;28;20069;-72
2022/11/23 11:08:30;;;;;;;1.23;0.70;;;;;;;;;;5035840;28;20126;-71
2022/11/23 11:11:02;;;;;;;2.00;0.77;;;;;;;;;;5018967;28;20119;-71
2022/11/23 11:13:31;;;;;;;4.55;0.90;;;;;;;;;;5036194;28;21042;-71
2022/11/23 11:16:05;;;;;;;1.35;0.65;;;;;;;;;;5035659;28;20091;-71
2022/11/23 11:18:36;;;;;;;1.52;0.70;;;;;;;;;;5032822;28;20057;-73
2022/11/23 11:21:28;;;;;;;1.67;0.55;;;;;;;;;;5036369;28;20278;-71
2022/11/23 11:23:58;;;;;;;7.03;1.40;;;;;;;;;;5035195;28;20101;-68
2022/11/23 11:26:27;;;;;;;3.30;1.55;;;;;;;;;;5034576;28;20052;-72
2022/11/23 11:29:05;;;;;;;3.67;0.65;;;;;;;;;;5031047;28;20621;-70
2022/11/23 11:31:47;;;;;;;5.15;0.90;;;;;;;;;;5014889;28;20490;-69
2022/11/23 11:34:34;;;;;;;6.35;1.10;;;;;;;;;;5035819;28;20135;-70
2022/11/23 11:36:59;;;;;;;4.30;1.33;;;;;;;;;;5033840;28;20056;-72
2022/11/23 11:39:43;;;;;;;5.82;1.25;;;;;;;;;;5032522;28;20057;-70
2022/11/23 11:42:19;;;;;;;6.47;0.90;;;;;;;;;;5036643;28;20044;-70
2022/11/23 11:44:48;;;;;;;5.43;1.65;;;;;;;;;;5027712;28;21297;-71
2022/11/23 11:47:22;;;;;;;5.60;1.17;;;;;;;;;;5029899;28;20172;-71
2022/11/23 11:49:49;;;;;;;;;;;;;;;;;;5032149;28;20045;-70
2022/11/23 11:52:20;;;;;;;3.50;1.00;;;;;;;;;;5036268;28;19932;-71
2022/11/23 11:54:58;;;;;;;4.43;0.90;;;;;;;;;;5035574;28;20053;-71
2022/11/23 11:57:31;;;;;;;3.47;1.15;;;;;;;;;;5037476;28;20502;-72
2022/11/23 12:00:01;;;;;;;5.68;1.00;;;;;;;;;;5035084;28;20048;-73
2022/11/23 12:02:41;;;;;;;6.32;1.20;;;;;;;;;;5042492;28;20151;-71
2022/11/23 12:05:24;;;;;;;5.57;1.10;;;;;;;;;;5023298;28;20626;-70
2022/11/23 12:08:07;;;;;;;3.67;1.50;;;;;;;;;;5038539;28;20679;-69
2022/11/23 12:10:40;;;;;;;3.63;0.80;;;;;;;;;;5034347;28;20428;-71
2022/11/23 12:13:22;;;;;;;5.93;1.08;;;;;;;;;;5022314;28;20517;-71
2022/11/23 12:16:05;;;;;;;9.15;1.15;;;;;;;;;;5036269;28;20230;-71
2022/11/23 12:19:02;;;;;;;9.38;1.10;;;;;;;;;;5033372;28;20055;-70
2022/11/23 12:21:53;;;;;;;7.13;1.10;;;;;;;;;;5034999;28;20083;-71
2022/11/23 12:24:21;;;;;;;5.28;1.13;;;;;;;;;;5034950;28;20064;-70
2022/11/23 12:26:53;;;;;;;6.63;1.00;;;;;;;;;;5035393;28;20950;-73
2022/11/23 12:29:47;;;;;;;5.43;1.00;;;;;;;;;;5035294;28;20621;-74
2022/11/23 12:32:22;;;;;;;;;;;;;;;;;;5036755;28;20122;-70
2022/11/23 12:35:26;;;;;;;6.05;1.35;;;;;;;;;;5041555;28;20032;-71
2022/11/23 12:38:22;;;;;;;8.82;1.10;;;;;;;;;;5004422;28;20534;-71
2022/11/23 12:40:51;;;;;;;5.03;1.02;;;;;;;;;;5002297;28;20609;-70
2022/11/23 12:43:31;;;;;;;5.35;1.55;;;;;;;;;;5001520;28;20057;-72
2022/11/23 12:46:10;;;;;;;4.38;1.10;;;;;;;;;;5005880;28;20046;-72
2022/11/23 12:49:05;;;;;;;3.78;1.20;;;;;;;;;;5001430;28;20046;-71
2022/11/23 12:51:53;;;;;;;5.40;1.17;;;;;;;;;;5002353;28;20138;-72
2022/11/23 12:54:44;;;;;;;4.53;0.90;;;;;;;;;;5004378;28;20115;-70
2022/11/23 12:57:38;;;;;;;6.68;1.00;;;;;;;;;;5004719;28;20045;-73
2022/11/23 13:00:06;;;;;;;;;;;;;;;;;;5006374;28;20064;-70
2022/11/23 13:03:03;;;;;;;6.82;0.90;;;;;;;;;;5002838;28;20398;-72
2022/11/23 13:06:05;;;;;;;2.00;0.70;;;;;;;;;;5003041;28;20104;-72
2022/11/23 13:08:49;;;;;;;6.00;1.02;;;;;;;;;;5009082;28;20053;-72
2022/11/23 13:11:54;;;;;;;4.70;0.90;;;;;;;;;;5021988;28;20052;-70
2022/11/23 13:14:46;;;;;;;5.77;0.80;;;;;;;;;;5012920;28;20668;-71
2022/11/23 13:17:21;;;;;;;3.90;0.75;;;;;;;;;;5032027;28;20646;-72
2022/11/23 13:19:49;;;;;;;4.63;0.80;;;;;;;;;;5032356;28;20075;-70
2022/11/23 13:22:19;;;;;;;3.50;0.80;;;;;;;;;;5032894;28;20053;-72
2022/11/23 13:25:06;;;;;;;5.30;1.00;;;;;;;;;;5029524;28;20041;-73
2022/11/23 13:27:49;;;;;;;8.15;1.00;;;;;;;;;;5032519;28;20128;-74
2022/11/23 13:30:20;;;;;;;6.30;0.95;;;;;;;;;;5033923;28;20063;-73
2022/11/23 13:33:00;;;;;;;4.80;0.90;;;;;;;;;;5024787;28;20593;-75
2022/11/23 13:35:29;;;;;;;2.78;0.90;;;;;;;;;;5039953;28;20400;-74
2022/11/23 13:37:55;;;;;;;6.65;1.15;;;;;;;;;;5037777;28;20142;-73
2022/11/23 13:40:23;;;;;;;5.43;1.00;;;;;;;;;;5032125;28;20117;-73
2022/11/23 13:42:51;;;;;;;3.92;0.90;;;;;;;;;;5014629;28;20056;-73
2022/11/23 13:45:20;;;;;;;3.15;1.00;;;;;;;;;;5037677;28;20493;-76
2022/11/23 13:48:05;;;;;;;2.90;1.20;;;;;;;;;;5019583;28;20565;-77
2022/11/23 13:50:32;;;;;;;4.53;1.00;;;;;;;;;;5031740;28;20056;-71
2022/11/23 13:52:59;;;;;;;2.28;0.90;;;;;;;;;;5034569;28;20236;-76
2022/11/23 13:55:34;;;;;;;9.70;1.23;;;;;;;;;;5030439;28;20053;-73
2022/11/23 13:58:22;;;;;;;3.28;0.95;;;;;;;;;;5034520;28;20071;-73
2022/11/23 14:00:56;;;;;;;3.47;0.80;;;;;;;;;;5036356;28;20045;-72
2022/11/23 14:03:41;;;;;;;4.82;0.80;;;;;;;;;;5031901;28;20064;-72
2022/11/23 14:06:44;;;;;;;2.22;0.98;;;;;;;;;;5028209;28;20117;-72
2022/11/23 14:09:16;;;;;;;3.25;0.90;;;;;;;;;;5032527;28;20067;-76
2022/11/23 14:12:11;;;;;;;3.22;1.00;;;;;;;;;;5030644;28;20077;-73
2022/11/23 14:14:46;;;;;;;1.02;0.60;;;;;;;;;;5021115;28;20107;-72
2022/11/23 14:17:42;;;;;;;4.97;0.70;;;;;;;;;;5033376;28;20060;-72
2022/11/23 14:20:24;;;;;;;2.42;0.85;;;;;;;;;;5028766;28;20442;-73
2022/11/23 14:23:02;;;;;;;2.40;0.80;;;;;;;;;;5027808;28;20348;-73
2022/11/23 14:26:03;;;;;;;2.35;0.73;;;;;;;;;;5034426;28;20133;-74
2022/11/23 14:28:50;;;;;;;3.05;0.77;;;;;;;;;;5027593;28;20650;-75
2022/11/23 14:31:40;;;;;;;1.98;0.88;;;;;;;;;;5035762;28;20368;-75
2022/11/23 14:34:09;;;;;;;1.48;0.70;;;;;;;;;;5032436;28;20087;-72
2022/11/23 14:36:54;;;;;;;3.38;0.80;;;;;;;;;;5038753;28;20055;-75
2022/11/23 14:39:38;;;;;;;1.98;0.63;;;;;;;;;;5032292;28;20045;-76
2022/11/23 14:42:13;;;;;;;2.42;0.70;;;;;;;;;;5032248;28;20431;-74
2022/11/23 14:44:41;;;;;;;1.98;0.90;;;;;;;;;;5023895;28;20079;-74
2022/11/23 14:47:09;;;;;;;1.27;0.85;;;;;;;;;;5037560;28;20348;-74
2022/11/23 14:49:36;;;;;;;1.60;0.80;;;;;;;;;;5031989;28;20418;-75
2022/11/23 14:52:03;;;;;;;2.03;0.90;;;;;;;;;;5027598;28;20047;-77
2022/11/23 14:54:30;;;;;;;3.70;1.02;;;;;;;;;;5027531;28;20049;-73
2022/11/23 14:57:02;;;;;;;1.98;1.00;;;;;;;;;;5009836;28;20061;-77
2022/11/23 14:59:31;;;;;;;3.22;0.90;;;;;;;;;;5035990;28;20151;-75
2022/11/23 15:02:04;;;;;;;2.20;0.90;;;;;;;;;;5037715;28;20455;-76
2022/11/23 15:04:39;;;;;;;3.95;1.10;;;;;;;;;;5033476;28;20137;-75
2022/11/23 15:07:26;;;;;;;1.60;0.80;;;;;;;;;;5034214;28;20131;-76